ETSA

Landsberg Lech Airport

Germany
METAR ETSA 231520Z AUTO 07014KT 9999 // ////// M04/M07 Q1013 ///
Observed Flight Rules
Feb-23 @ 15:20 UTC (an hour ago)
Wind Visibility
70° at 14 knots 10,000+ meters
Temperatures Readings
Current -4°C / 25°F
Dewpoint -7°C / 19°F
Humidity 80%
Altimeter 29.91" Hg
Pressure 1013 hPa
Elevation 628
METAR ETSA 231520Z AUTO 07014KT 9999 // ////// M04/M07 Q1013 ///
Observed Flight Rules
Feb-23 @ 15:20 UTC
(an hour ago)
Wind Visibility
70° at 14 knots 10,000+ meters
Temperature Dewpoint
-4°C / 25°F -7°C / 19°F
Humidity Altimeter Pressure
80% 29.91" Hg 1013 hPa